sensor_id;sensor_type;location;lat;lon;timestamp;temperature;humidity
70214;DHT22;60138;55.808;37.078;2023-05-07T00:01:29;-1.62;62.41
70214;DHT22;60138;55.808;37.078;2023-05-07T00:03:55;-1.64;62.21
70214;DHT22;60138;55.808;37.078;2023-05-07T00:06:21;-1.67;62.33
70214;DHT22;60138;55.808;37.078;2023-05-07T00:08:47;-1.68;62.48
70214;DHT22;60138;55.808;37.078;2023-05-07T00:11:12;-1.71;62.24
70214;DHT22;60138;55.808;37.078;2023-05-07T00:13:38;-1.74;63.47
70214;DHT22;60138;55.808;37.078;2023-05-07T00:16:04;-1.76;63.36
70214;DHT22;60138;55.808;37.078;2023-05-07T00:18:30;-1.79;63.52
70214;DHT22;60138;55.808;37.078;2023-05-07T00:20:56;-1.84;62.94
70214;DHT22;60138;55.808;37.078;2023-05-07T00:23:22;-1.84;62.82
70214;DHT22;60138;55.808;37.078;2023-05-07T00:25:48;-1.84;62.64
70214;DHT22;60138;55.808;37.078;2023-05-07T00:28:14;-1.84;63.25
70214;DHT22;60138;55.808;37.078;2023-05-07T00:30:40;-1.85;62.78
70214;DHT22;60138;55.808;37.078;2023-05-07T00:33:05;-1.89;62.98
70214;DHT22;60138;55.808;37.078;2023-05-07T00:35:31;-1.93;63.76
70214;DHT22;60138;55.808;37.078;2023-05-07T00:37:57;-1.94;63.69
70214;DHT22;60138;55.808;37.078;2023-05-07T00:40:23;-1.98;64.10
70214;DHT22;60138;55.808;37.078;2023-05-07T00:42:49;-2.00;64.34
70214;DHT22;60138;55.808;37.078;2023-05-07T00:45:16;-2.01;63.37
70214;DHT22;60138;55.808;37.078;2023-05-07T00:47:41;-2.05;63.38
70214;DHT22;60138;55.808;37.078;2023-05-07T00:50:08;-2.08;63.15
70214;DHT22;60138;55.808;37.078;2023-05-07T00:52:34;-2.09;63.58
70214;DHT22;60138;55.808;37.078;2023-05-07T00:55:04;-2.14;63.57
70214;DHT22;60138;55.808;37.078;2023-05-07T00:57:35;-2.15;63.48
70214;DHT22;60138;55.808;37.078;2023-05-07T01:00:03;-2.17;64.26
70214;DHT22;60138;55.808;37.078;2023-05-07T01:02:32;-2.18;64.28
70214;DHT22;60138;55.808;37.078;2023-05-07T01:04:57;-2.19;63.91
70214;DHT22;60138;55.808;37.078;2023-05-07T01:07:23;-2.21;64.28
70214;DHT22;60138;55.808;37.078;2023-05-07T01:09:49;-2.20;64.45
70214;DHT22;60138;55.808;37.078;2023-05-07T01:12:16;-2.21;64.03
70214;DHT22;60138;55.808;37.078;2023-05-07T01:14:42;-2.23;64.12
70214;DHT22;60138;55.808;37.078;2023-05-07T01:17:07;-2.23;63.80
70214;DHT22;60138;55.808;37.078;2023-05-07T01:19:34;-2.22;63.73
70214;DHT22;60138;55.808;37.078;2023-05-07T01:22:07;-2.26;64.26
70214;DHT22;60138;55.808;37.078;2023-05-07T01:24:42;-2.28;63.80
70214;DHT22;60138;55.808;37.078;2023-05-07T01:27:08;-2.28;63.94
70214;DHT22;60138;55.808;37.078;2023-05-07T01:29:35;-2.28;63.92
70214;DHT22;60138;55.808;37.078;2023-05-07T01:32:01;-2.29;63.82
70214;DHT22;60138;55.808;37.078;2023-05-07T01:34:31;-2.30;63.95
70214;DHT22;60138;55.808;37.078;2023-05-07T01:36:58;-2.32;64.59
70214;DHT22;60138;55.808;37.078;2023-05-07T01:39:26;-2.32;64.27
70214;DHT22;60138;55.808;37.078;2023-05-07T01:41:56;-2.32;64.24
70214;DHT22;60138;55.808;37.078;2023-05-07T01:44:24;-2.32;63.95
70214;DHT22;60138;55.808;37.078;2023-05-07T01:46:49;-2.32;64.47
70214;DHT22;60138;55.808;37.078;2023-05-07T01:49:16;-2.32;64.32
70214;DHT22;60138;55.808;37.078;2023-05-07T01:51:42;-2.31;64.30
70214;DHT22;60138;55.808;37.078;2023-05-07T01:54:09;-2.30;64.86
70214;DHT22;60138;55.808;37.078;2023-05-07T01:56:35;-2.28;64.37
70214;DHT22;60138;55.808;37.078;2023-05-07T01:59:02;-2.26;64.63
70214;DHT22;60138;55.808;37.078;2023-05-07T02:01:28;-2.24;66.48
70214;DHT22;60138;55.808;37.078;2023-05-07T02:03:54;-2.24;66.30
70214;DHT22;60138;55.808;37.078;2023-05-07T02:06:24;-2.23;65.84
70214;DHT22;60138;55.808;37.078;2023-05-07T02:08:53;-2.22;66.49
70214;DHT22;60138;55.808;37.078;2023-05-07T02:11:19;-2.19;66.72
70214;DHT22;60138;55.808;37.078;2023-05-07T02:13:45;-2.14;66.60
70214;DHT22;60138;55.808;37.078;2023-05-07T02:16:11;-2.12;67.14
70214;DHT22;60138;55.808;37.078;2023-05-07T02:18:38;-2.07;68.50
70214;DHT22;60138;55.808;37.078;2023-05-07T02:21:04;-2.01;68.53
70214;DHT22;60138;55.808;37.078;2023-05-07T02:23:29;-1.95;66.68
70214;DHT22;60138;55.808;37.078;2023-05-07T02:25:55;-1.91;68.69
70214;DHT22;60138;55.808;37.078;2023-05-07T02:28:21;-1.87;69.28
70214;DHT22;60138;55.808;37.078;2023-05-07T02:30:54;-1.82;69.01
70214;DHT22;60138;55.808;37.078;2023-05-07T02:33:21;-1.77;68.73
70214;DHT22;60138;55.808;37.078;2023-05-07T02:35:47;-1.73;68.26
70214;DHT22;60138;55.808;37.078;2023-05-07T02:38:15;-1.63;70.97
70214;DHT22;60138;55.808;37.078;2023-05-07T02:40:41;-1.53;69.99
70214;DHT22;60138;55.808;37.078;2023-05-07T02:43:06;-1.49;68.33
70214;DHT22;60138;55.808;37.078;2023-05-07T02:45:33;-1.48;69.48
70214;DHT22;60138;55.808;37.078;2023-05-07T02:48:00;-1.46;69.55
70214;DHT22;60138;55.808;37.078;2023-05-07T02:50:25;-1.43;67.71
70214;DHT22;60138;55.808;37.078;2023-05-07T02:52:51;-1.39;68.41
70214;DHT22;60138;55.808;37.078;2023-05-07T02:55:17;-1.34;68.90
70214;DHT22;60138;55.808;37.078;2023-05-07T02:57:43;-1.30;69.43
70214;DHT22;60138;55.808;37.078;2023-05-07T03:00:17;-1.26;69.42
70214;DHT22;60138;55.808;37.078;2023-05-07T03:02:54;-1.23;68.75
70214;DHT22;60138;55.808;37.078;2023-05-07T03:05:20;-1.17;69.29
70214;DHT22;60138;55.808;37.078;2023-05-07T03:07:46;-1.11;70.26
70214;DHT22;60138;55.808;37.078;2023-05-07T03:10:13;-1.02;69.42
70214;DHT22;60138;55.808;37.078;2023-05-07T03:12:39;-0.96;70.25
70214;DHT22;60138;55.808;37.078;2023-05-07T03:15:05;-0.88;69.71
70214;DHT22;60138;55.808;37.078;2023-05-07T03:17:32;-0.86;68.84
70214;DHT22;60138;55.808;37.078;2023-05-07T03:19:57;-0.77;70.45
70214;DHT22;60138;55.808;37.078;2023-05-07T03:22:24;-0.74;69.60
70214;DHT22;60138;55.808;37.078;2023-05-07T03:24:50;-0.71;69.42
70214;DHT22;60138;55.808;37.078;2023-05-07T03:27:16;-0.66;69.94
70214;DHT22;60138;55.808;37.078;2023-05-07T03:29:42;-0.59;69.65
70214;DHT22;60138;55.808;37.078;2023-05-07T03:32:08;-0.53;69.48
70214;DHT22;60138;55.808;37.078;2023-05-07T03:34:34;-0.49;69.55
70214;DHT22;60138;55.808;37.078;2023-05-07T03:37:00;-0.44;68.24
70214;DHT22;60138;55.808;37.078;2023-05-07T03:39:26;-0.42;67.62
70214;DHT22;60138;55.808;37.078;2023-05-07T03:41:52;-0.37;69.28
70214;DHT22;60138;55.808;37.078;2023-05-07T03:44:18;-0.31;67.68
70214;DHT22;60138;55.808;37.078;2023-05-07T03:46:44;-0.27;68.83
70214;DHT22;60138;55.808;37.078;2023-05-07T03:49:11;-0.23;68.84
70214;DHT22;60138;55.808;37.078;2023-05-07T03:51:36;-0.17;69.52
70214;DHT22;60138;55.808;37.078;2023-05-07T03:54:04;-0.12;68.58
70214;DHT22;60138;55.808;37.078;2023-05-07T03:56:31;-0.05;68.10
70214;DHT22;60138;55.808;37.078;2023-05-07T03:58:59;0.05;68.20
70214;DHT22;60138;55.808;37.078;2023-05-07T04:01:26;0.14;65.38
70214;DHT22;60138;55.808;37.078;2023-05-07T04:03:51;0.20;67.77
70214;DHT22;60138;55.808;37.078;2023-05-07T04:06:17;0.25;68.16
70214;DHT22;60138;55.808;37.078;2023-05-07T04:08:46;0.37;64.59
70214;DHT22;60138;55.808;37.078;2023-05-07T04:11:13;0.43;66.54
70214;DHT22;60138;55.808;37.078;2023-05-07T04:13:39;0.47;65.53
70214;DHT22;60138;55.808;37.078;2023-05-07T04:16:07;0.52;67.23
70214;DHT22;60138;55.808;37.078;2023-05-07T04:18:35;0.58;65.67
70214;DHT22;60138;55.808;37.078;2023-05-07T04:21:00;0.65;65.02
70214;DHT22;60138;55.808;37.078;2023-05-07T04:23:27;0.71;65.67
70214;DHT22;60138;55.808;37.078;2023-05-07T04:25:53;0.77;65.30
70214;DHT22;60138;55.808;37.078;2023-05-07T04:28:28;0.82;64.86
70214;DHT22;60138;55.808;37.078;2023-05-07T04:30:54;0.88;65.29
70214;DHT22;60138;55.808;37.078;2023-05-07T04:33:21;0.98;65.09
70214;DHT22;60138;55.808;37.078;2023-05-07T04:35:48;1.16;64.13
70214;DHT22;60138;55.808;37.078;2023-05-07T04:38:14;1.25;63.63
70214;DHT22;60138;55.808;37.078;2023-05-07T04:40:40;1.37;62.74
70214;DHT22;60138;55.808;37.078;2023-05-07T04:43:08;1.56;61.95
70214;DHT22;60138;55.808;37.078;2023-05-07T04:45:39;1.67;61.79
70214;DHT22;60138;55.808;37.078;2023-05-07T04:48:05;1.73;60.96
70214;DHT22;60138;55.808;37.078;2023-05-07T04:50:32;1.76;61.23
70214;DHT22;60138;55.808;37.078;2023-05-07T04:53:01;1.79;60.43
70214;DHT22;60138;55.808;37.078;2023-05-07T04:55:26;1.84;60.02
70214;DHT22;60138;55.808;37.078;2023-05-07T04:57:53;1.90;60.17
70214;DHT22;60138;55.808;37.078;2023-05-07T05:00:19;1.98;59.87
70214;DHT22;60138;55.808;37.078;2023-05-07T05:02:47;2.09;58.93
70214;DHT22;60138;55.808;37.078;2023-05-07T05:05:17;2.19;57.94
70214;DHT22;60138;55.808;37.078;2023-05-07T05:07:44;2.29;58.17
70214;DHT22;60138;55.808;37.078;2023-05-07T05:10:10;2.39;57.64
70214;DHT22;60138;55.808;37.078;2023-05-07T05:12:38;2.47;58.44
70214;DHT22;60138;55.808;37.078;2023-05-07T05:15:04;2.53;57.43
70214;DHT22;60138;55.808;37.078;2023-05-07T05:17:31;2.56;56.00
70214;DHT22;60138;55.808;37.078;2023-05-07T05:19:57;2.60;54.69
70214;DHT22;60138;55.808;37.078;2023-05-07T05:22:24;2.72;54.53
70214;DHT22;60138;55.808;37.078;2023-05-07T05:24:50;2.86;53.16
70214;DHT22;60138;55.808;37.078;2023-05-07T05:27:16;2.95;52.83
70214;DHT22;60138;55.808;37.078;2023-05-07T05:29:41;3.04;53.42
70214;DHT22;60138;55.808;37.078;2023-05-07T05:32:07;3.15;53.87
70214;DHT22;60138;55.808;37.078;2023-05-07T05:34:33;3.15;53.34
70214;DHT22;60138;55.808;37.078;2023-05-07T05:37:00;3.28;51.82
70214;DHT22;60138;55.808;37.078;2023-05-07T05:39:25;3.47;51.64
70214;DHT22;60138;55.808;37.078;2023-05-07T05:41:51;3.50;49.27
70214;DHT22;60138;55.808;37.078;2023-05-07T05:44:17;3.50;48.99
70214;DHT22;60138;55.808;37.078;2023-05-07T05:46:43;3.73;49.36
70214;DHT22;60138;55.808;37.078;2023-05-07T05:49:08;3.98;47.76
70214;DHT22;60138;55.808;37.078;2023-05-07T05:51:34;4.14;47.23
70214;DHT22;60138;55.808;37.078;2023-05-07T05:54:00;4.28;48.87
70214;DHT22;60138;55.808;37.078;2023-05-07T05:56:26;4.44;48.07
70214;DHT22;60138;55.808;37.078;2023-05-07T05:58:52;4.54;44.49
70214;DHT22;60138;55.808;37.078;2023-05-07T06:01:18;4.53;46.47
70214;DHT22;60138;55.808;37.078;2023-05-07T06:03:44;4.49;48.73
70214;DHT22;60138;55.808;37.078;2023-05-07T06:06:13;4.51;45.79
70214;DHT22;60138;55.808;37.078;2023-05-07T06:08:39;4.56;45.16
70214;DHT22;60138;55.808;37.078;2023-05-07T06:11:05;4.81;44.12
70214;DHT22;60138;55.808;37.078;2023-05-07T06:13:34;4.92;45.90
70214;DHT22;60138;55.808;37.078;2023-05-07T06:16:00;4.98;46.67
70214;DHT22;60138;55.808;37.078;2023-05-07T06:18:25;5.19;44.67
70214;DHT22;60138;55.808;37.078;2023-05-07T06:20:52;5.24;45.36
70214;DHT22;60138;55.808;37.078;2023-05-07T06:23:23;5.27;44.54
70214;DHT22;60138;55.808;37.078;2023-05-07T06:25:49;5.45;43.92
70214;DHT22;60138;55.808;37.078;2023-05-07T06:28:17;5.50;42.46
70214;DHT22;60138;55.808;37.078;2023-05-07T06:30:43;5.39;42.51
70214;DHT22;60138;55.808;37.078;2023-05-07T06:33:09;5.27;44.43
70214;DHT22;60138;55.808;37.078;2023-05-07T06:35:35;5.47;40.56
70214;DHT22;60138;55.808;37.078;2023-05-07T06:38:01;5.51;42.53
70214;DHT22;60138;55.808;37.078;2023-05-07T06:40:28;5.54;39.49
70214;DHT22;60138;55.808;37.078;2023-05-07T06:42:55;5.46;39.39
70214;DHT22;60138;55.808;37.078;2023-05-07T06:45:41;5.24;41.66
70214;DHT22;60138;55.808;37.078;2023-05-07T06:48:09;5.30;42.03
70214;DHT22;60138;55.808;37.078;2023-05-07T06:50:44;5.64;43.95
70214;DHT22;60138;55.808;37.078;2023-05-07T06:53:10;5.87;40.66
70214;DHT22;60138;55.808;37.078;2023-05-07T06:55:36;5.95;42.07
70214;DHT22;60138;55.808;37.078;2023-05-07T06:58:02;5.77;40.90
70214;DHT22;60138;55.808;37.078;2023-05-07T07:00:28;5.67;41.70
70214;DHT22;60138;55.808;37.078;2023-05-07T07:02:55;5.53;38.85
70214;DHT22;60138;55.808;37.078;2023-05-07T07:05:24;5.40;40.55
70214;DHT22;60138;55.808;37.078;2023-05-07T07:07:49;5.33;40.88
70214;DHT22;60138;55.808;37.078;2023-05-07T07:10:15;5.22;39.93
70214;DHT22;60138;55.808;37.078;2023-05-07T07:12:41;5.11;40.32
70214;DHT22;60138;55.808;37.078;2023-05-07T07:15:07;5.16;42.10
70214;DHT22;60138;55.808;37.078;2023-05-07T07:17:33;5.25;39.36
70214;DHT22;60138;55.808;37.078;2023-05-07T07:19:59;5.54;40.63
70214;DHT22;60138;55.808;37.078;2023-05-07T07:22:25;5.84;38.98
70214;DHT22;60138;55.808;37.078;2023-05-07T07:24:51;6.17;38.08
70214;DHT22;60138;55.808;37.078;2023-05-07T07:27:17;6.49;40.06
70214;DHT22;60138;55.808;37.078;2023-05-07T07:29:43;6.61;38.30
70214;DHT22;60138;55.808;37.078;2023-05-07T07:32:08;6.73;38.35
70214;DHT22;60138;55.808;37.078;2023-05-07T07:34:34;6.60;37.57
70214;DHT22;60138;55.808;37.078;2023-05-07T07:37:01;6.48;39.05
70214;DHT22;60138;55.808;37.078;2023-05-07T07:39:27;6.39;38.30
70214;DHT22;60138;55.808;37.078;2023-05-07T07:41:55;6.40;37.17
70214;DHT22;60138;55.808;37.078;2023-05-07T07:44:21;6.55;36.47
70214;DHT22;60138;55.808;37.078;2023-05-07T07:46:52;6.85;39.39
70214;DHT22;60138;55.808;37.078;2023-05-07T07:49:19;7.17;35.53
70214;DHT22;60138;55.808;37.078;2023-05-07T07:51:46;7.09;33.71
70214;DHT22;60138;55.808;37.078;2023-05-07T07:54:13;6.94;33.98
70214;DHT22;60138;55.808;37.078;2023-05-07T07:56:39;6.66;35.62
70214;DHT22;60138;55.808;37.078;2023-05-07T07:59:06;6.50;37.59
70214;DHT22;60138;55.808;37.078;2023-05-07T08:01:33;6.49;38.45
70214;DHT22;60138;55.808;37.078;2023-05-07T08:04:00;6.73;37.54
70214;DHT22;60138;55.808;37.078;2023-05-07T08:06:28;6.97;34.57
70214;DHT22;60138;55.808;37.078;2023-05-07T08:08:55;7.19;33.74
70214;DHT22;60138;55.808;37.078;2023-05-07T08:11:21;7.30;33.42
70214;DHT22;60138;55.808;37.078;2023-05-07T08:13:48;7.38;37.08
70214;DHT22;60138;55.808;37.078;2023-05-07T08:16:13;7.41;33.47
70214;DHT22;60138;55.808;37.078;2023-05-07T08:18:39;7.13;33.45
70214;DHT22;60138;55.808;37.078;2023-05-07T08:21:05;6.86;37.62
70214;DHT22;60138;55.808;37.078;2023-05-07T08:23:32;6.70;35.79
70214;DHT22;60138;55.808;37.078;2023-05-07T08:25:57;6.58;32.19
70214;DHT22;60138;55.808;37.078;2023-05-07T08:28:24;6.56;38.33
70214;DHT22;60138;55.808;37.078;2023-05-07T08:30:51;6.67;33.88
70214;DHT22;60138;55.808;37.078;2023-05-07T08:33:17;6.96;37.38
70214;DHT22;60138;55.808;37.078;2023-05-07T08:35:43;7.53;35.76
70214;DHT22;60138;55.808;37.078;2023-05-07T08:38:11;7.94;33.92
70214;DHT22;60138;55.808;37.078;2023-05-07T08:40:38;8.29;35.53
70214;DHT22;60138;55.808;37.078;2023-05-07T08:43:08;8.50;36.16
70214;DHT22;60138;55.808;37.078;2023-05-07T08:45:39;8.53;30.62
70214;DHT22;60138;55.808;37.078;2023-05-07T08:48:09;8.13;29.35
70214;DHT22;60138;55.808;37.078;2023-05-07T08:50:36;7.84;29.02
70214;DHT22;60138;55.808;37.078;2023-05-07T08:53:03;7.78;31.12
70214;DHT22;60138;55.808;37.078;2023-05-07T08:55:30;7.69;31.64
70214;DHT22;60138;55.808;37.078;2023-05-07T08:57:56;7.64;29.56
70214;DHT22;60138;55.808;37.078;2023-05-07T09:00:23;7.39;31.30
70214;DHT22;60138;55.808;37.078;2023-05-07T09:02:52;7.24;29.88
70214;DHT22;60138;55.808;37.078;2023-05-07T09:05:19;7.17;28.63
70214;DHT22;60138;55.808;37.078;2023-05-07T09:07:45;7.32;30.11
70214;DHT22;60138;55.808;37.078;2023-05-07T09:10:13;7.42;28.75
70214;DHT22;60138;55.808;37.078;2023-05-07T09:12:40;7.73;29.68
70214;DHT22;60138;55.808;37.078;2023-05-07T09:15:09;8.23;34.02
70214;DHT22;60138;55.808;37.078;2023-05-07T09:17:35;8.63;33.72
70214;DHT22;60138;55.808;37.078;2023-05-07T09:20:05;8.66;30.41
70214;DHT22;60138;55.808;37.078;2023-05-07T09:22:33;8.56;27.45
70214;DHT22;60138;55.808;37.078;2023-05-07T09:25:04;8.56;28.82
70214;DHT22;60138;55.808;37.078;2023-05-07T09:27:30;8.70;29.66
70214;DHT22;60138;55.808;37.078;2023-05-07T09:29:57;8.72;30.59
70214;DHT22;60138;55.808;37.078;2023-05-07T09:32:25;8.61;29.50
70214;DHT22;60138;55.808;37.078;2023-05-07T09:34:51;8.56;28.52
70214;DHT22;60138;55.808;37.078;2023-05-07T09:37:21;8.49;29.00
70214;DHT22;60138;55.808;37.078;2023-05-07T09:39:48;8.80;31.75
70214;DHT22;60138;55.808;37.078;2023-05-07T09:42:23;9.26;27.20
70214;DHT22;60138;55.808;37.078;2023-05-07T09:44:50;9.60;28.26
70214;DHT22;60138;55.808;37.078;2023-05-07T09:47:19;9.86;27.44
70214;DHT22;60138;55.808;37.078;2023-05-07T09:49:50;9.74;24.17
70214;DHT22;60138;55.808;37.078;2023-05-07T09:52:20;9.52;27.35
70214;DHT22;60138;55.808;37.078;2023-05-07T09:54:50;9.44;32.79
70214;DHT22;60138;55.808;37.078;2023-05-07T09:57:21;9.27;30.79
70214;DHT22;60138;55.808;37.078;2023-05-07T09:59:53;9.16;30.48
70214;DHT22;60138;55.808;37.078;2023-05-07T10:02:20;9.20;32.45
70214;DHT22;60138;55.808;37.078;2023-05-07T10:04:50;9.33;32.64
70214;DHT22;60138;55.808;37.078;2023-05-07T10:07:21;9.49;28.28
70214;DHT22;60138;55.808;37.078;2023-05-07T10:09:51;9.40;26.76
70214;DHT22;60138;55.808;37.078;2023-05-07T10:12:24;9.33;29.21
70214;DHT22;60138;55.808;37.078;2023-05-07T10:14:50;9.17;25.34
70214;DHT22;60138;55.808;37.078;2023-05-07T10:17:18;8.91;27.60
70214;DHT22;60138;55.808;37.078;2023-05-07T10:19:46;8.91;28.90
70214;DHT22;60138;55.808;37.078;2023-05-07T10:22:13;8.94;30.38
70214;DHT22;60138;55.808;37.078;2023-05-07T10:24:44;8.93;26.89
70214;DHT22;60138;55.808;37.078;2023-05-07T10:27:15;9.09;28.63
70214;DHT22;60138;55.808;37.078;2023-05-07T10:30:01;9.40;26.16
70214;DHT22;60138;55.808;37.078;2023-05-07T10:32:39;9.79;25.19
70214;DHT22;60138;55.808;37.078;2023-05-07T10:35:16;10.01;23.34
70214;DHT22;60138;55.808;37.078;2023-05-07T10:37:44;10.20;24.85
70214;DHT22;60138;55.808;37.078;2023-05-07T10:40:11;10.28;24.36
70214;DHT22;60138;55.808;37.078;2023-05-07T10:42:37;10.21;23.26
70214;DHT22;60138;55.808;37.078;2023-05-07T10:45:14;10.21;25.83
70214;DHT22;60138;55.808;37.078;2023-05-07T10:50:32;9.38;23.55
70214;DHT22;60138;55.808;37.078;2023-05-07T10:55:50;9.61;26.01
70214;DHT22;60138;55.808;37.078;2023-05-07T10:58:29;9.74;23.75
70214;DHT22;60138;55.808;37.078;2023-05-07T11:01:04;9.72;24.75
70214;DHT22;60138;55.808;37.078;2023-05-07T11:03:35;9.59;23.72
70214;DHT22;60138;55.808;37.078;2023-05-07T11:06:21;9.57;26.45
70214;DHT22;60138;55.808;37.078;2023-05-07T11:08:56;9.54;23.28
70214;DHT22;60138;55.808;37.078;2023-05-07T11:11:49;9.59;26.26
70214;DHT22;60138;55.808;37.078;2023-05-07T11:17:10;9.86;25.41
70214;DHT22;60138;55.808;37.078;2023-05-07T11:19:54;9.99;25.91
70214;DHT22;60138;55.808;37.078;2023-05-07T11:22:42;9.71;25.44
70214;DHT22;60138;55.808;37.078;2023-05-07T11:25:18;9.41;25.20
70214;DHT22;60138;55.808;37.078;2023-05-07T11:27:45;9.14;27.63
70214;DHT22;60138;55.808;37.078;2023-05-07T11:30:17;8.92;26.39
70214;DHT22;60138;55.808;37.078;2023-05-07T11:32:43;8.94;27.16
70214;DHT22;60138;55.808;37.078;2023-05-07T11:35:09;9.10;28.24
70214;DHT22;60138;55.808;37.078;2023-05-07T11:37:35;9.23;26.47
70214;DHT22;60138;55.808;37.078;2023-05-07T11:40:05;10.52;32.26
70214;DHT22;60138;55.808;37.078;2023-05-07T11:42:39;13.04;29.58
70214;DHT22;60138;55.808;37.078;2023-05-07T11:45:06;14.67;21.20
70214;DHT22;60138;55.808;37.078;2023-05-07T11:47:33;15.83;22.15
70214;DHT22;60138;55.808;37.078;2023-05-07T11:50:06;17.22;17.22
70214;DHT22;60138;55.808;37.078;2023-05-07T11:52:32;17.88;18.02
70214;DHT22;60138;55.808;37.078;2023-05-07T11:54:59;17.74;24.00
70214;DHT22;60138;55.808;37.078;2023-05-07T11:57:26;16.67;14.16
70214;DHT22;60138;55.808;37.078;2023-05-07T11:59:56;15.67;21.21
70214;DHT22;60138;55.808;37.078;2023-05-07T12:02:22;14.86;18.90
70214;DHT22;60138;55.808;37.078;2023-05-07T12:04:48;13.93;18.97
70214;DHT22;60138;55.808;37.078;2023-05-07T12:07:15;12.57;19.82
70214;DHT22;60138;55.808;37.078;2023-05-07T12:09:41;11.70;20.59
70214;DHT22;60138;55.808;37.078;2023-05-07T12:12:07;11.29;21.17
70214;DHT22;60138;55.808;37.078;2023-05-07T12:14:41;11.05;22.63
70214;DHT22;60138;55.808;37.078;2023-05-07T12:17:11;13.75;19.56
70214;DHT22;60138;55.808;37.078;2023-05-07T12:19:40;16.36;18.49
70214;DHT22;60138;55.808;37.078;2023-05-07T12:22:10;18.24;13.95
70214;DHT22;60138;55.808;37.078;2023-05-07T12:24:46;18.86;13.62
70214;DHT22;60138;55.808;37.078;2023-05-07T12:27:13;16.69;13.61
70214;DHT22;60138;55.808;37.078;2023-05-07T12:29:39;15.36;23.21
70214;DHT22;60138;55.808;37.078;2023-05-07T12:32:06;14.26;17.45
70214;DHT22;60138;55.808;37.078;2023-05-07T12:34:32;13.50;18.46
70214;DHT22;60138;55.808;37.078;2023-05-07T12:37:02;12.88;19.22
70214;DHT22;60138;55.808;37.078;2023-05-07T12:39:27;12.37;18.51
70214;DHT22;60138;55.808;37.078;2023-05-07T12:41:57;12.44;20.36
70214;DHT22;60138;55.808;37.078;2023-05-07T12:44:23;12.80;17.78
70214;DHT22;60138;55.808;37.078;2023-05-07T12:46:50;12.34;21.69
70214;DHT22;60138;55.808;37.078;2023-05-07T12:49:15;11.91;20.60
70214;DHT22;60138;55.808;37.078;2023-05-07T12:51:41;11.71;21.79
70214;DHT22;60138;55.808;37.078;2023-05-07T12:54:07;11.41;22.44
70214;DHT22;60138;55.808;37.078;2023-05-07T12:56:35;11.15;20.58
70214;DHT22;60138;55.808;37.078;2023-05-07T12:59:01;10.97;22.28
70214;DHT22;60138;55.808;37.078;2023-05-07T13:01:30;10.80;21.80
70214;DHT22;60138;55.808;37.078;2023-05-07T13:04:00;10.66;24.82
70214;DHT22;60138;55.808;37.078;2023-05-07T13:06:26;10.55;23.27
70214;DHT22;60138;55.808;37.078;2023-05-07T13:08:53;10.49;24.42
70214;DHT22;60138;55.808;37.078;2023-05-07T13:11:18;10.45;23.69
70214;DHT22;60138;55.808;37.078;2023-05-07T13:13:44;10.57;23.17
70214;DHT22;60138;55.808;37.078;2023-05-07T13:16:10;10.72;22.79
70214;DHT22;60138;55.808;37.078;2023-05-07T13:18:38;10.94;25.52
70214;DHT22;60138;55.808;37.078;2023-05-07T13:21:05;10.96;23.23
70214;DHT22;60138;55.808;37.078;2023-05-07T13:23:30;11.15;21.95
70214;DHT22;60138;55.808;37.078;2023-05-07T13:25:56;11.32;21.16
70214;DHT22;60138;55.808;37.078;2023-05-07T13:28:23;11.24;20.65
70214;DHT22;60138;55.808;37.078;2023-05-07T13:30:49;11.56;22.33
70214;DHT22;60138;55.808;37.078;2023-05-07T13:33:15;11.20;22.98
70214;DHT22;60138;55.808;37.078;2023-05-07T13:35:40;10.96;22.11
70214;DHT22;60138;55.808;37.078;2023-05-07T13:38:06;10.72;21.09
70214;DHT22;60138;55.808;37.078;2023-05-07T13:40:32;10.50;22.05
70214;DHT22;60138;55.808;37.078;2023-05-07T13:43:00;10.93;23.42
70214;DHT22;60138;55.808;37.078;2023-05-07T13:45:25;11.11;21.11
70214;DHT22;60138;55.808;37.078;2023-05-07T13:47:51;11.30;24.48
70214;DHT22;60138;55.808;37.078;2023-05-07T13:50:17;12.80;23.24
70214;DHT22;60138;55.808;37.078;2023-05-07T13:52:44;14.23;18.70
70214;DHT22;60138;55.808;37.078;2023-05-07T13:55:10;15.58;17.86
70214;DHT22;60138;55.808;37.078;2023-05-07T13:57:36;16.52;18.24
70214;DHT22;60138;55.808;37.078;2023-05-07T14:00:03;17.32;16.99
70214;DHT22;60138;55.808;37.078;2023-05-07T14:02:31;17.02;13.63
70214;DHT22;60138;55.808;37.078;2023-05-07T14:04:57;17.68;15.48
70214;DHT22;60138;55.808;37.078;2023-05-07T14:07:22;16.80;12.75
70214;DHT22;60138;55.808;37.078;2023-05-07T14:09:48;16.10;14.84
70214;DHT22;60138;55.808;37.078;2023-05-07T14:12:14;14.91;17.15
70214;DHT22;60138;55.808;37.078;2023-05-07T14:14:39;13.63;16.35
70214;DHT22;60138;55.808;37.078;2023-05-07T14:17:05;13.17;20.41
70214;DHT22;60138;55.808;37.078;2023-05-07T14:19:31;12.72;20.27
70214;DHT22;60138;55.808;37.078;2023-05-07T14:21:56;13.37;19.89
70214;DHT22;60138;55.808;37.078;2023-05-07T14:24:23;14.66;17.50
70214;DHT22;60138;55.808;37.078;2023-05-07T14:26:49;15.71;19.19
70214;DHT22;60138;55.808;37.078;2023-05-07T14:29:15;16.43;16.77
70214;DHT22;60138;55.808;37.078;2023-05-07T14:31:40;16.98;15.66
70214;DHT22;60138;55.808;37.078;2023-05-07T14:34:06;17.47;16.93
70214;DHT22;60138;55.808;37.078;2023-05-07T14:36:32;17.94;16.93
70214;DHT22;60138;55.808;37.078;2023-05-07T14:38:57;18.39;16.46
70214;DHT22;60138;55.808;37.078;2023-05-07T14:41:23;17.78;16.48
70214;DHT22;60138;55.808;37.078;2023-05-07T14:43:49;16.46;14.07
70214;DHT22;60138;55.808;37.078;2023-05-07T14:46:15;15.38;16.87
70214;DHT22;60138;55.808;37.078;2023-05-07T14:48:41;14.80;14.84
70214;DHT22;60138;55.808;37.078;2023-05-07T14:51:07;14.42;16.77
70214;DHT22;60138;55.808;37.078;2023-05-07T14:53:32;14.52;17.90
70214;DHT22;60138;55.808;37.078;2023-05-07T14:55:58;14.14;18.09
70214;DHT22;60138;55.808;37.078;2023-05-07T14:58:24;13.56;19.60
70214;DHT22;60138;55.808;37.078;2023-05-07T15:00:50;12.92;18.21
70214;DHT22;60138;55.808;37.078;2023-05-07T15:03:15;12.34;19.02
70214;DHT22;60138;55.808;37.078;2023-05-07T15:05:43;12.31;19.29
70214;DHT22;60138;55.808;37.078;2023-05-07T15:08:09;12.34;18.58
70214;DHT22;60138;55.808;37.078;2023-05-07T15:10:36;12.32;21.02
70214;DHT22;60138;55.808;37.078;2023-05-07T15:13:02;12.14;19.70
70214;DHT22;60138;55.808;37.078;2023-05-07T15:15:27;11.71;19.91
70214;DHT22;60138;55.808;37.078;2023-05-07T15:17:54;11.42;20.86
70214;DHT22;60138;55.808;37.078;2023-05-07T15:20:20;10.99;20.71
70214;DHT22;60138;55.808;37.078;2023-05-07T15:22:45;10.92;21.38
70214;DHT22;60138;55.808;37.078;2023-05-07T15:25:11;10.88;21.53
70214;DHT22;60138;55.808;37.078;2023-05-07T15:27:36;10.54;21.37
70214;DHT22;60138;55.808;37.078;2023-05-07T15:30:03;10.44;22.83
70214;DHT22;60138;55.808;37.078;2023-05-07T15:32:30;10.36;22.64